createdAt,value
2018-12-13T00:01:17.924Z,87.69
2018-12-13T00:03:51.794Z,87.74
2018-12-13T00:06:33.226Z,88.16
2018-12-13T00:09:00.734Z,88.32
2018-12-13T00:11:43.379Z,88.24
2018-12-13T00:14:25.224Z,87.57
2018-12-13T00:17:13.817Z,87.93
2018-12-13T00:31:47.582Z,87.12
2018-12-13T00:34:23.381Z,87.61
2018-12-13T00:55:19.368Z,86.72
2018-12-13T00:58:11.168Z,87.04
2018-12-13T01:43:57.394Z,87.13
2018-12-13T01:46:41.097Z,86.94
2018-12-13T01:49:21.491Z,86.75
2018-12-13T01:54:49.640Z,86.93
2018-12-13T01:57:19.643Z,87.04
2018-12-13T01:59:49.741Z,87.02
2018-12-13T02:02:19.564Z,86.62
2018-12-13T02:04:55.116Z,86.48
2018-12-13T02:07:37.129Z,86.82
2018-12-13T02:13:19.917Z,86.65
2018-12-13T02:18:54.334Z,86.33
2018-12-13T02:21:30.140Z,86.24
2018-12-13T02:24:16.599Z,86.17
2018-12-13T02:30:13.187Z,85.76
2018-12-13T02:32:54.994Z,85.58
2018-12-13T02:35:31.295Z,85.99
2018-12-13T02:38:01.287Z,85.30
2018-12-13T02:40:36.704Z,85.25
2018-12-13T02:43:11.973Z,85.33
2018-12-13T02:45:42.160Z,85.16
2018-12-13T02:48:12.365Z,85.20
2018-12-13T02:50:42.283Z,85.51
2018-12-13T02:53:12.259Z,85.09
2018-12-13T02:55:42.331Z,85.66
2018-12-13T02:58:16.367Z,85.50
2018-12-13T03:00:46.379Z,85.22
2018-12-13T03:03:16.679Z,85.51
2018-12-13T03:05:46.568Z,85.29
2018-12-13T03:08:16.580Z,85.52
2018-12-13T03:10:46.706Z,85.17
2018-12-13T03:13:16.683Z,85.13
2018-12-13T03:15:46.830Z,85.20
2018-12-13T03:18:18.799Z,85.44
2018-12-13T03:20:48.887Z,85.18
2018-12-13T03:23:18.858Z,85.09
2018-12-13T03:25:48.859Z,84.84
2018-12-13T03:28:18.733Z,84.79
2018-12-13T03:30:48.742Z,85.16
2018-12-13T03:33:18.842Z,85.17
2018-12-13T03:35:48.787Z,85.17
2018-12-13T03:38:19.017Z,85.07
2018-12-13T03:40:49.121Z,85.18
2018-12-13T03:43:21.179Z,84.77
2018-12-13T03:45:51.208Z,84.40
2018-12-13T03:48:21.281Z,84.55
2018-12-13T03:50:51.272Z,84.48
2018-12-13T03:53:21.293Z,84.41
2018-12-13T03:55:51.289Z,84.70
2018-12-13T03:58:21.443Z,84.67
2018-12-13T04:00:51.341Z,84.87
2018-12-13T04:03:21.392Z,84.38
2018-12-13T04:05:51.646Z,84.10
2018-12-13T04:08:21.595Z,84.06
2018-12-13T04:10:51.666Z,84.33
2018-12-13T04:13:21.682Z,84.24
2018-12-13T04:15:52.680Z,84.21
2018-12-13T04:18:22.743Z,83.82
2018-12-13T04:20:54.624Z,83.72
2018-12-13T04:23:24.909Z,83.70
2018-12-13T04:25:54.909Z,83.70
2018-12-13T04:28:24.913Z,83.63
2018-12-13T04:30:54.971Z,83.92
2018-12-13T04:33:24.960Z,84.50
2018-12-13T04:35:54.940Z,83.91
2018-12-13T04:38:24.769Z,84.24
2018-12-13T04:40:54.789Z,84.70
2018-12-13T04:43:25.890Z,84.33
2018-12-13T04:45:55.893Z,84.78
2018-12-13T04:48:26.113Z,84.38
2018-12-13T04:50:56.067Z,84.91
2018-12-13T04:53:26.049Z,84.61
2018-12-13T04:55:56.028Z,85.26
2018-12-13T04:58:27.024Z,85.47
2018-12-13T05:00:56.946Z,85.44
2018-12-13T05:03:26.948Z,85.64
2018-12-13T05:05:56.984Z,85.04
2018-12-13T05:08:26.798Z,85.49
2018-12-13T05:10:56.962Z,85.72
2018-12-13T05:13:27.099Z,85.36
2018-12-13T05:15:56.980Z,85.79
2018-12-13T05:18:26.838Z,85.67
2018-12-13T05:20:56.844Z,85.76
2018-12-13T05:23:27.326Z,86.19
2018-12-13T05:25:57.195Z,86.12
2018-12-13T05:28:27.154Z,85.65
2018-12-13T05:30:57.267Z,86.29
2018-12-13T05:33:27.308Z,85.92
2018-12-13T05:35:57.313Z,86.19
2018-12-13T05:38:27.255Z,85.75
2018-12-13T05:40:57.319Z,86.08
2018-12-13T05:43:27.387Z,85.76
2018-12-13T05:45:57.459Z,86.40
2018-12-13T05:48:27.488Z,85.66
2018-12-13T05:50:57.643Z,85.78
2018-12-13T05:53:27.669Z,85.49
2018-12-13T05:55:57.815Z,85.52
2018-12-13T05:58:27.625Z,86.17
2018-12-13T06:00:57.631Z,86.20
2018-12-13T06:03:27.649Z,86.03
2018-12-13T06:05:57.962Z,85.52
2018-12-13T06:08:28.114Z,85.59
2018-12-13T06:10:58.229Z,85.36
2018-12-13T06:13:29.334Z,85.78
2018-12-13T06:15:59.458Z,85.22
2018-12-13T06:18:29.426Z,85.14
2018-12-13T06:20:59.350Z,85.01
2018-12-13T06:23:29.286Z,84.79
2018-12-13T06:25:59.363Z,83.79
2018-12-13T06:28:29.323Z,83.62
2018-12-13T06:30:59.424Z,83.37
2018-12-13T06:33:29.654Z,83.11
2018-12-13T06:35:59.506Z,82.16
2018-12-13T06:38:29.515Z,81.92
2018-12-13T06:40:59.594Z,81.60
2018-12-13T06:43:29.630Z,81.67
2018-12-13T06:45:59.824Z,81.07
2018-12-13T06:48:30.015Z,81.42
2018-12-13T06:50:59.985Z,81.27
2018-12-13T06:53:30.195Z,81.35
2018-12-13T06:56:01.794Z,81.60
2018-12-13T06:58:31.776Z,81.09
2018-12-13T07:01:01.822Z,81.14
2018-12-13T07:03:31.680Z,81.30
2018-12-13T07:06:01.743Z,80.91
2018-12-13T07:08:33.466Z,81.26
2018-12-13T07:11:03.544Z,80.94
2018-12-13T07:13:33.641Z,81.19
2018-12-13T07:16:03.659Z,80.83
2018-12-13T07:18:33.740Z,81.26
2018-12-13T07:21:04.014Z,81.29
2018-12-13T07:23:33.863Z,80.34
2018-12-13T07:26:03.843Z,80.51
2018-12-13T07:28:33.803Z,80.12
2018-12-13T07:31:03.944Z,80.49
2018-12-13T07:33:33.954Z,80.92
2018-12-13T07:36:04.022Z,80.68
2018-12-13T07:38:34.092Z,81.14
2018-12-13T07:41:04.361Z,81.56
2018-12-13T07:43:34.364Z,81.56
2018-12-13T07:46:04.366Z,81.66
2018-12-13T07:48:36.074Z,81.59
2018-12-13T07:51:07.891Z,81.89
2018-12-13T07:53:39.591Z,81.54
2018-12-13T07:56:09.627Z,81.98
2018-12-13T07:58:39.533Z,81.58
2018-12-13T08:01:09.678Z,81.65
2018-12-13T08:03:39.644Z,81.96
2018-12-13T08:06:11.204Z,82.35
2018-12-13T08:08:43.028Z,81.91
2018-12-13T08:11:14.565Z,82.42
2018-12-13T08:13:51.044Z,82.40
2018-12-13T08:16:23.158Z,81.72
2018-12-13T08:18:55.081Z,82.09
2018-12-13T08:21:27.311Z,81.62
2018-12-13T08:23:57.493Z,81.34
2018-12-13T08:26:27.876Z,81.89
2018-12-13T08:28:59.102Z,81.79
2018-12-13T08:31:30.468Z,81.92
2018-12-13T08:34:00.589Z,81.97
2018-12-13T08:36:30.919Z,81.92
2018-12-13T08:39:02.716Z,82.22
2018-12-13T08:41:35.709Z,81.71
2018-12-13T08:44:07.907Z,81.73
2018-12-13T08:46:39.756Z,81.72
2018-12-13T08:49:09.789Z,82.09
2018-12-13T08:51:40.101Z,82.13
2018-12-13T08:54:15.478Z,82.44
2018-12-13T08:56:46.593Z,82.12
2018-12-13T08:59:16.602Z,82.37
2018-12-13T09:01:47.515Z,82.51
2018-12-13T09:04:19.381Z,82.40
2018-12-13T09:06:50.566Z,81.68
2018-12-13T09:09:21.611Z,81.21
2018-12-13T09:11:51.674Z,82.00
2018-12-13T09:14:21.654Z,81.36
2018-12-13T09:16:54.413Z,81.06
2018-12-13T09:19:24.528Z,81.34
2018-12-13T09:21:54.912Z,81.04
2018-12-13T09:24:25.772Z,81.24
2018-12-13T09:26:58.071Z,80.91
2018-12-13T09:29:30.091Z,81.66
2018-12-13T09:32:00.202Z,81.45
2018-12-13T09:34:30.072Z,81.86
2018-12-13T09:37:00.444Z,81.96
2018-12-13T09:39:32.165Z,82.07
2018-12-13T09:42:03.237Z,82.22
2018-12-13T09:44:34.801Z,82.25
2018-12-13T09:47:05.138Z,82.41
2018-12-13T09:49:37.356Z,82.22
2018-12-13T09:52:07.528Z,81.49
2018-12-13T09:54:39.258Z,81.18
2018-12-13T09:57:09.406Z,81.19
2018-12-13T10:02:11.495Z,80.62
2018-12-13T10:04:42.982Z,80.71
2018-12-13T10:07:12.924Z,80.19
2018-12-13T10:09:43.008Z,79.87
2018-12-13T10:12:13.198Z,79.62
2018-12-13T10:14:43.559Z,79.80
2018-12-13T10:17:14.926Z,79.24
2018-12-13T10:19:46.679Z,79.12
2018-12-13T10:22:17.031Z,79.39
2018-12-13T10:24:47.280Z,78.97
2018-12-13T10:27:17.237Z,79.24
2018-12-13T10:29:47.189Z,78.99
2018-12-13T10:32:17.313Z,78.23
2018-12-13T10:34:47.195Z,78.65
2018-12-13T10:37:17.474Z,78.23
2018-12-13T10:39:47.506Z,77.50
2018-12-13T10:42:17.588Z,77.13
2018-12-13T10:44:47.751Z,76.86
2018-12-13T10:47:17.835Z,76.70
2018-12-13T10:49:47.778Z,76.53
2018-12-13T10:52:17.917Z,75.96
2018-12-13T10:54:48.065Z,75.77
2018-12-13T10:57:18.267Z,75.12
2018-12-13T10:59:48.209Z,75.52
2018-12-13T11:02:23.521Z,74.82
2018-12-13T11:04:53.407Z,74.48
2018-12-13T11:07:23.449Z,74.62
2018-12-13T11:09:53.393Z,74.09
2018-12-13T11:12:23.311Z,73.91
2018-12-13T11:14:53.285Z,74.36
2018-12-13T11:17:23.430Z,73.62
2018-12-13T11:19:53.441Z,73.89
2018-12-13T11:22:23.302Z,74.25
2018-12-13T11:24:53.187Z,73.88
2018-12-13T11:27:37.228Z,74.53
2018-12-13T11:30:24.728Z,74.37
2018-12-13T11:32:54.714Z,75.15
2018-12-13T11:35:29.673Z,75.24
2018-12-13T11:37:59.762Z,75.53
2018-12-13T11:40:29.923Z,76.15
2018-12-13T11:43:01.867Z,76.46
2018-12-13T11:45:36.980Z,76.49
2018-12-13T11:48:07.351Z,77.22
2018-12-13T11:50:37.373Z,76.50
2018-12-13T11:53:07.358Z,76.43
2018-12-13T11:55:38.650Z,77.08
2018-12-13T11:58:12.259Z,76.44
2018-12-13T12:00:42.249Z,76.52
2018-12-13T12:03:12.342Z,76.52
2018-12-13T12:05:42.343Z,76.34
2018-12-13T12:08:13.401Z,76.75
2018-12-13T12:10:43.393Z,76.16
2018-12-13T12:13:13.263Z,76.78
2018-12-13T12:15:43.253Z,76.76
2018-12-13T12:18:13.201Z,77.21
2018-12-13T12:20:43.054Z,76.89
2018-12-13T12:23:12.984Z,77.16
2018-12-13T12:25:42.935Z,77.23
2018-12-13T12:28:12.843Z,76.67
2018-12-13T12:30:42.911Z,76.51
2018-12-13T12:33:12.885Z,76.71
2018-12-13T12:35:43.003Z,76.49
2018-12-13T12:38:13.105Z,76.75
2018-12-13T12:40:43.320Z,76.79
2018-12-13T12:43:13.253Z,77.35
2018-12-13T12:45:43.244Z,77.16
2018-12-13T12:48:13.295Z,77.53
2018-12-13T12:50:43.215Z,77.01
2018-12-13T12:53:16.539Z,77.28
2018-12-13T12:55:46.526Z,76.99
2018-12-13T12:58:16.619Z,77.79
2018-12-13T13:00:46.623Z,77.22
2018-12-13T13:03:16.659Z,77.52
2018-12-13T13:05:46.655Z,77.14
2018-12-13T13:08:16.578Z,77.36
2018-12-13T13:10:46.644Z,77.59
2018-12-13T13:13:16.552Z,77.45
2018-12-13T13:15:46.473Z,76.76
2018-12-13T13:18:16.439Z,76.81
2018-12-13T13:20:46.394Z,77.31
2018-12-13T13:23:16.417Z,77.64
2018-12-13T13:25:46.481Z,77.42
2018-12-13T13:28:16.352Z,77.80
2018-12-13T13:30:46.331Z,77.55
2018-12-13T13:33:16.390Z,77.73
2018-12-13T13:35:46.649Z,78.51
2018-12-13T13:38:16.631Z,78.24
2018-12-13T13:40:49.582Z,77.88
2018-12-13T13:43:20.728Z,78.23
2018-12-13T13:45:51.833Z,78.51
2018-12-13T13:48:21.835Z,78.03
2018-12-13T13:50:53.732Z,78.13
2018-12-13T13:53:23.948Z,78.04
2018-12-13T13:55:53.863Z,78.46
2018-12-13T13:58:23.746Z,78.48
2018-12-13T14:00:53.701Z,77.85
2018-12-13T14:03:23.533Z,78.00
2018-12-13T14:05:53.482Z,78.03
2018-12-13T14:08:23.534Z,78.47
2018-12-13T14:10:53.359Z,78.40
2018-12-13T14:13:23.341Z,78.33
2018-12-13T14:15:53.186Z,78.36
2018-12-13T14:18:23.243Z,78.10
2018-12-13T14:20:53.093Z,78.53
2018-12-13T14:23:23.139Z,78.10
2018-12-13T14:25:53.030Z,78.21
2018-12-13T14:28:22.965Z,77.88
2018-12-13T14:30:52.940Z,78.54
2018-12-13T14:33:23.166Z,77.96
2018-12-13T14:35:53.119Z,78.30
2018-12-13T14:38:23.082Z,78.53
2018-12-13T14:40:55.185Z,78.46
2018-12-13T14:43:27.166Z,79.31
2018-12-13T14:45:57.356Z,78.79
2018-12-13T14:48:27.564Z,78.43
2018-12-13T14:50:57.931Z,79.01
2018-12-13T14:53:30.960Z,78.88
2018-12-13T14:56:02.899Z,79.08
2018-12-13T14:58:32.847Z,79.20
2018-12-13T15:01:02.729Z,79.81
2018-12-13T15:03:33.792Z,79.81
2018-12-13T15:06:03.784Z,79.50
2018-12-13T15:08:34.806Z,79.00
2018-12-13T15:11:05.864Z,79.09
2018-12-13T15:13:35.777Z,79.76
2018-12-13T15:16:05.948Z,80.05
2018-12-13T15:18:35.998Z,80.31
2018-12-13T15:21:06.138Z,80.36
2018-12-13T15:23:36.251Z,80.21
2018-12-13T15:26:06.436Z,80.39
2018-12-13T15:28:38.862Z,80.66
2018-12-13T15:31:09.163Z,81.00
2018-12-13T15:33:39.156Z,81.39
2018-12-13T15:36:09.114Z,81.10
2018-12-13T15:38:39.174Z,81.20
2018-12-13T15:41:09.127Z,80.78
2018-12-13T15:43:39.181Z,81.43
2018-12-13T15:46:10.274Z,80.95
2018-12-13T15:48:40.471Z,80.54
2018-12-13T15:51:10.794Z,80.68
2018-12-13T15:53:42.557Z,80.85
2018-12-13T15:56:13.220Z,81.35
2018-12-13T15:58:45.230Z,80.61
2018-12-13T16:01:16.979Z,81.08
2018-12-13T16:03:47.037Z,81.55
2018-12-13T16:06:16.978Z,81.71
2018-12-13T16:08:47.019Z,81.45
2018-12-13T16:11:17.120Z,81.34
2018-12-13T16:13:48.216Z,81.67
2018-12-13T16:16:18.303Z,81.49
2018-12-13T16:18:48.540Z,81.42
2018-12-13T16:21:18.496Z,81.97
2018-12-13T16:23:48.453Z,81.67
2018-12-13T16:26:18.418Z,81.71
2018-12-13T16:28:48.394Z,82.30
2018-12-13T16:31:18.361Z,82.32
2018-12-13T16:33:48.790Z,81.92
2018-12-13T16:36:18.762Z,82.12
2018-12-13T16:38:48.770Z,81.97
2018-12-13T16:41:18.805Z,81.75
2018-12-13T16:43:48.899Z,82.12
2018-12-13T16:46:18.912Z,81.74
2018-12-13T16:48:48.924Z,82.09
2018-12-13T16:51:18.928Z,82.10
2018-12-13T16:53:48.956Z,81.80
2018-12-13T16:56:18.977Z,82.18
2018-12-13T16:59:02.810Z,81.97
2018-12-13T17:01:37.742Z,81.59
2018-12-13T17:04:07.703Z,81.46
2018-12-13T17:06:37.685Z,81.46
2018-12-13T17:09:09.718Z,82.29
2018-12-13T17:11:59.617Z,82.18
2018-12-13T17:14:31.574Z,81.84
2018-12-13T17:17:08.531Z,82.37
2018-12-13T17:19:40.583Z,81.66
2018-12-13T17:22:10.539Z,82.10
2018-12-13T17:24:40.656Z,81.78
2018-12-13T17:27:17.162Z,81.64
2018-12-13T17:29:54.717Z,82.22
2018-12-13T17:32:32.332Z,82.18
2018-12-13T17:35:12.589Z,81.83
2018-12-13T17:37:48.626Z,82.22
2018-12-13T17:40:24.570Z,82.29
2018-12-13T17:42:58.704Z,82.43
2018-12-13T17:45:31.724Z,81.87
2018-12-13T17:48:02.224Z,81.65
2018-12-13T17:50:32.084Z,81.94
2018-12-13T17:53:02.140Z,82.24
2018-12-13T17:55:32.223Z,82.63
2018-12-13T17:58:02.171Z,82.56
2018-12-13T18:00:32.192Z,82.29
2018-12-13T18:03:02.370Z,82.60
2018-12-13T18:05:32.472Z,82.09
2018-12-13T18:08:02.444Z,82.91
2018-12-13T18:10:32.629Z,83.02
2018-12-13T18:13:02.549Z,82.98
2018-12-13T18:15:32.633Z,82.60
2018-12-13T18:18:02.646Z,82.68
2018-12-13T18:20:32.664Z,82.71
2018-12-13T18:23:03.702Z,82.84
2018-12-13T18:25:33.642Z,82.63
2018-12-13T18:28:03.720Z,82.30
2018-12-13T18:30:43.551Z,82.62
2018-12-13T18:33:14.604Z,82.43
2018-12-13T18:35:44.775Z,82.61
2018-12-13T18:38:14.695Z,82.34
2018-12-13T18:40:57.270Z,82.42
2018-12-13T18:43:28.531Z,83.22
2018-12-13T18:45:58.720Z,83.35
2018-12-13T18:48:28.867Z,83.14
2018-12-13T18:50:58.685Z,82.85
2018-12-13T18:53:28.845Z,83.01
2018-12-13T18:56:00.820Z,83.45
2018-12-13T18:58:30.806Z,83.72
2018-12-13T19:01:03.538Z,83.39
2018-12-13T19:03:33.584Z,83.06
2018-12-13T19:06:03.577Z,83.11
2018-12-13T19:08:33.812Z,83.50
2018-12-13T19:11:05.040Z,83.23
2018-12-13T19:13:35.391Z,83.41
2018-12-13T19:16:05.359Z,83.11
2018-12-13T19:18:35.325Z,83.62
2018-12-13T19:21:06.861Z,83.63
2018-12-13T19:23:37.025Z,83.64
2018-12-13T19:29:10.442Z,83.97
2018-12-13T19:31:45.470Z,83.60
2018-12-13T19:34:15.563Z,83.55
2018-12-13T19:36:45.406Z,83.42
2018-12-13T19:39:15.345Z,83.41
2018-12-13T19:41:45.547Z,83.83
2018-12-13T19:44:16.517Z,84.07
2018-12-13T19:46:48.615Z,83.76
2018-12-13T19:52:06.469Z,83.76
2018-12-13T19:54:38.806Z,83.96
2018-12-13T19:57:09.771Z,83.18
2018-12-13T19:59:45.214Z,83.84
2018-12-13T20:02:16.273Z,83.67
2018-12-13T20:04:46.331Z,83.41
2018-12-13T20:07:16.317Z,83.33
2018-12-13T20:09:47.244Z,83.13
2018-12-13T20:12:26.487Z,83.49
2018-12-13T20:14:58.432Z,83.69
2018-12-13T20:17:29.050Z,83.25
2018-12-13T20:20:10.343Z,83.35
2018-12-13T20:22:41.151Z,83.24
2018-12-13T20:25:14.939Z,83.68
2018-12-13T20:27:52.000Z,84.03
2018-12-13T20:30:33.840Z,83.63
2018-12-13T20:33:22.351Z,84.13
2018-12-13T20:35:59.452Z,84.07
2018-12-13T20:38:41.546Z,84.54
2018-12-13T20:41:15.460Z,83.84
2018-12-13T20:43:45.869Z,84.25
2018-12-13T20:46:16.971Z,84.83
2018-12-13T20:48:47.071Z,84.52
2018-12-13T20:51:18.675Z,84.88
2018-12-13T20:53:50.705Z,84.77
2018-12-13T20:56:28.188Z,85.17
2018-12-13T20:59:06.028Z,85.05
2018-12-13T21:01:37.635Z,84.78
2018-12-13T21:04:08.001Z,85.47
2018-12-13T21:06:39.335Z,85.08
2018-12-13T21:09:10.478Z,84.96
2018-12-13T21:11:42.630Z,85.09
2018-12-13T21:14:18.823Z,84.95
2018-12-13T21:16:59.935Z,84.66
2018-12-13T21:19:32.553Z,84.87
2018-12-13T21:22:13.992Z,84.60
2018-12-13T21:24:55.752Z,84.99
2018-12-13T21:27:30.501Z,85.13
2018-12-13T21:30:12.010Z,84.99
2018-12-13T21:36:07.956Z,84.90
2018-12-13T21:38:48.958Z,84.58
2018-12-13T21:41:29.340Z,84.81
2018-12-13T21:43:59.224Z,84.41
2018-12-13T21:46:32.682Z,84.85
2018-12-13T21:49:09.210Z,84.86
2018-12-13T21:51:51.638Z,84.62
2018-12-13T21:54:27.547Z,85.02
2018-12-13T21:56:57.846Z,84.49
2018-12-13T21:59:27.885Z,84.34
2018-12-13T22:01:57.918Z,85.17
2018-12-13T22:04:27.850Z,84.83
2018-12-13T22:06:58.928Z,84.95
2018-12-13T22:09:29.002Z,84.62
2018-12-13T22:11:59.010Z,85.12
2018-12-13T22:14:29.151Z,85.17
2018-12-13T22:17:06.141Z,85.23
2018-12-13T22:19:36.160Z,85.15
2018-12-13T22:22:06.329Z,85.19
2018-12-13T22:24:36.302Z,84.94
2018-12-13T22:27:06.636Z,84.78
2018-12-13T22:29:42.331Z,84.49
2018-12-13T22:32:12.545Z,84.40
2018-12-13T22:37:39.172Z,84.35
2018-12-13T22:40:09.280Z,84.46
2018-12-13T22:42:43.677Z,84.22
2018-12-13T22:45:13.907Z,84.33
2018-12-13T22:47:45.184Z,83.85
2018-12-13T22:50:15.518Z,84.40
2018-12-13T22:52:46.186Z,83.74
2018-12-13T22:55:16.470Z,83.99
2018-12-13T22:57:46.904Z,83.78
2018-12-13T23:00:23.665Z,84.42
2018-12-13T23:02:59.635Z,84.10
2018-12-13T23:05:47.167Z,84.14
2018-12-13T23:08:26.354Z,84.15
2018-12-13T23:11:02.660Z,83.72
2018-12-13T23:13:32.806Z,83.76
2018-12-13T23:16:06.381Z,83.91
2018-12-13T23:18:42.142Z,83.69
2018-12-13T23:21:12.247Z,83.79
2018-12-13T23:23:42.366Z,84.03
2018-12-13T23:26:12.591Z,84.12
2018-12-13T23:28:42.706Z,84.07
2018-12-13T23:31:12.833Z,84.00
2018-12-13T23:33:42.990Z,83.87
2018-12-13T23:36:13.332Z,84.07
2018-12-13T23:38:43.191Z,83.85
2018-12-13T23:41:13.298Z,84.17
2018-12-13T23:43:43.601Z,83.64
2018-12-13T23:46:13.828Z,83.81
2018-12-13T23:48:44.101Z,84.01
2018-12-13T23:51:14.182Z,84.26
2018-12-13T23:53:44.515Z,84.11
2018-12-13T23:56:16.163Z,83.87
2018-12-13T23:58:46.580Z,83.75
